Time;durP1;ratioP1;P1;durP2;ratioP2;P2;SDS_P1;SDS_P2;PMS_P1;PMS_P2;Temp;Humidity;BMP_temperature;BMP_pressure;BME280_temperature;BME280_humidity;BME280_pressure;Samples;Min_cycle;Max_cycle;Signal;HPM_P1;HPM_P2
2024/04/11 00:01:15;;;;;;;2.63;2.00;;;9.90;2.10;;;;;;5468292;26;20815;-79
2024/04/11 00:03:45;;;;;;;2.63;2.00;;;10.00;1.80;;;;;;5470010;26;20473;-77
2024/04/11 00:06:15;;;;;;;3.43;3.10;;;9.90;2.40;;;;;;5472893;26;20808;-78
2024/04/11 00:08:45;;;;;;;2.97;2.13;;;9.90;14.20;;;;;;5473631;26;21029;-78
2024/04/11 00:11:13;;;;;;;2.23;2.03;;;10.00;2.40;;;;;;5476406;26;20534;-77
2024/04/11 00:13:43;;;;;;;3.50;2.77;;;10.00;2.90;;;;;;5476325;25;20461;-79
2024/04/11 00:16:10;;;;;;;2.40;2.20;;;10.00;3.30;;;;;;5471156;26;20461;-76
2024/04/11 00:18:41;;;;;;;5.23;2.33;;;10.00;3.90;;;;;;5472784;26;20532;-78
2024/04/11 00:21:09;;;;;;;3.50;2.13;;;9.90;5.00;;;;;;5474371;26;20461;-78
2024/04/11 00:23:41;;;;;;;4.53;2.30;;;9.90;4.90;;;;;;5477259;26;21157;-76
2024/04/11 00:26:10;;;;;;;6.33;3.10;;;9.70;3.90;;;;;;5470979;26;20505;-79
2024/04/11 00:28:40;;;;;;;3.93;2.40;;;9.70;4.70;;;;;;5479782;26;21130;-79
2024/04/11 00:31:07;;;;;;;2.73;2.53;;;9.80;4.90;;;;;;5472659;26;20544;-81
2024/04/11 00:33:54;;;;;;;4.77;1.97;;;9.90;5.80;;;;;;5474778;26;20485;-78
2024/04/11 00:36:23;;;;;;;12.77;7.47;;;9.80;6.10;;;;;;5473737;26;20473;-77
2024/04/11 00:38:55;;;;;;;6.40;5.17;;;9.90;6.60;;;;;;5475032;26;20467;-81
2024/04/11 00:41:23;;;;;;;8.27;5.03;;;9.90;7.10;;;;;;5475622;26;20536;-77
2024/04/11 00:43:53;;;;;;;14.00;6.80;;;9.80;7.70;;;;;;5468042;26;20473;-79
2024/04/11 00:46:20;;;;;;;9.57;6.40;;;9.80;7.20;;;;;;5476683;26;20583;-79
2024/04/11 00:48:50;;;;;;;4.67;4.07;;;9.80;7.50;;;;;;5470743;26;20544;-80
2024/04/11 00:51:18;;;;;;;6.70;3.90;;;9.80;7.60;;;;;;5475709;26;20466;-77
2024/04/11 00:53:53;;;;;;;6.03;4.40;;;9.80;7.90;;;;;;5466694;26;20477;-78
2024/04/11 00:56:24;;;;;;;6.83;4.33;;;9.80;8.10;;;;;;5473154;26;20478;-75
2024/04/11 00:58:58;;;;;;;4.70;3.30;;;9.70;8.10;;;;;;5475531;26;20513;-81
2024/04/11 01:01:26;;;;;;;4.13;3.53;;;9.70;7.60;;;;;;5476271;26;20473;-81
2024/04/11 01:03:56;;;;;;;4.20;3.27;;;9.60;7.90;;;;;;5469914;26;20522;-76
2024/04/11 01:06:24;;;;;;;3.27;2.97;;;9.60;9.10;;;;;;5467091;26;20481;-79
2024/04/11 01:08:54;;;;;;;2.67;2.33;;;9.60;8.90;;;;;;5472837;26;20514;-76
2024/04/11 01:11:25;;;;;;;3.27;2.53;;;9.40;8.00;;;;;;5474599;26;20530;-79
2024/04/11 01:13:56;;;;;;;2.40;2.20;;;9.30;7.60;;;;;;5470857;26;20454;-78
2024/04/11 01:16:25;;;;;;;4.70;2.13;;;9.30;7.50;;;;;;5468274;26;21066;-81
2024/04/11 01:18:56;;;;;;;2.50;2.30;;;9.40;8.20;;;;;;5471942;26;20532;-81
2024/04/11 01:21:24;;;;;;;3.90;2.20;;;9.40;7.70;;;;;;5468868;26;20527;-79
2024/04/11 01:23:56;;;;;;;3.30;2.20;;;9.30;7.80;;;;;;5471054;26;20482;-81
2024/04/11 01:26:24;;;;;;;3.63;2.07;;;9.10;6.40;;;;;;5469062;26;20491;-79
2024/04/11 01:28:54;;;;;;;3.50;2.50;;;9.20;7.50;;;;;;5469689;26;20475;-79
2024/04/11 01:31:21;;;;;;;2.40;2.20;;;9.20;8.00;;;;;;5468440;26;20513;-77
2024/04/11 01:33:54;;;;;;;3.53;2.30;;;9.20;7.30;;;;;;5473873;26;20546;-78
2024/04/11 01:36:22;;;;;;;2.23;2.03;;;9.20;7.40;;;;;;5472978;26;21021;-80
2024/04/11 01:38:52;;;;;;;2.00;1.90;;;9.20;7.30;;;;;;5466785;26;20548;-78
2024/04/11 01:41:23;;;;;;;5.40;2.60;;;9.20;7.40;;;;;;5471806;26;20536;-80
2024/04/11 01:43:54;;;;;;;4.07;2.30;;;9.20;7.50;;;;;;5471967;26;20965;-79
2024/04/11 01:46:22;;;;;;;4.07;2.27;;;9.10;6.20;;;;;;5469137;26;20864;-77
2024/04/11 01:48:52;;;;;;;7.03;2.53;;;9.00;5.50;;;;;;5470474;26;20471;-80
2024/04/11 01:51:19;;;;;;;4.27;2.43;;;9.00;7.10;;;;;;5470097;26;20465;-80
2024/04/11 01:53:49;;;;;;;2.57;2.10;;;9.00;7.10;;;;;;5476317;26;20463;-77
2024/04/11 01:56:17;;;;;;;4.33;2.60;;;9.00;6.80;;;;;;5472702;26;20993;-76
2024/04/11 01:58:49;;;;;;;3.00;2.17;;;8.90;6.80;;;;;;5468597;26;20473;-79
2024/04/11 02:01:19;;;;;;;2.57;2.37;;;8.90;6.20;;;;;;5472995;26;20509;-78
2024/04/11 02:03:49;;;;;;;2.27;2.17;;;9.00;7.10;;;;;;5469240;26;20524;-79
2024/04/11 02:06:18;;;;;;;2.60;2.40;;;9.00;8.70;;;;;;5475134;26;21033;-80
2024/04/11 02:08:49;;;;;;;4.40;2.93;;;9.00;8.00;;;;;;5465007;26;20467;-79
2024/04/11 02:11:16;;;;;;;4.03;2.57;;;9.00;7.80;;;;;;5476140;26;20583;-80
2024/04/11 02:13:49;;;;;;;3.93;2.37;;;9.00;8.00;;;;;;5473354;26;20461;-78
2024/04/11 02:16:16;;;;;;;4.60;2.67;;;8.90;8.00;;;;;;5470441;26;20517;-79
2024/04/11 02:18:46;;;;;;;2.93;2.00;;;9.00;8.40;;;;;;5465460;26;20466;-77
2024/04/11 02:21:14;;;;;;;4.60;2.27;;;9.00;9.30;;;;;;5473014;26;20445;-77
2024/04/11 02:23:44;;;;;;;5.63;2.07;;;9.00;9.20;;;;;;5476782;26;20457;-77
2024/04/11 02:26:13;;;;;;;3.03;2.50;;;9.00;8.90;;;;;;5467196;26;20476;-80
2024/04/11 02:28:45;;;;;;;3.87;2.10;;;9.00;9.40;;;;;;5467820;26;20520;-81
2024/04/11 02:31:15;;;;;;;2.63;2.37;;;9.00;9.60;;;;;;5473259;26;20521;-76
2024/04/11 02:33:46;;;;;;;2.27;2.00;;;9.00;10.10;;;;;;5477645;26;20472;-78
2024/04/11 02:36:13;;;;;;;2.43;2.20;;;8.90;9.30;;;;;;5472225;26;20598;-76
2024/04/11 02:38:43;;;;;;;3.93;2.37;;;8.80;9.20;;;;;;5474972;26;20474;-79
2024/04/11 02:41:11;;;;;;;6.60;2.70;;;8.90;9.40;;;;;;5474594;26;20473;-77
2024/04/11 02:43:41;;;;;;;2.33;2.07;;;8.80;9.50;;;;;;5470137;26;20461;-76
2024/04/11 02:46:15;;;;;;;2.37;2.17;;;8.60;9.40;;;;;;5474422;26;20474;-79
2024/04/11 02:48:48;;;;;;;2.93;2.10;;;8.60;11.50;;;;;;5476565;26;20520;-78
2024/04/11 02:51:17;;;;;;;4.60;2.50;;;8.70;11.80;;;;;;5477649;26;20469;-77
2024/04/11 02:53:47;;;;;;;2.63;2.43;;;8.70;12.10;;;;;;5473503;26;20562;-81
2024/04/11 02:56:16;;;;;;;4.73;2.40;;;8.70;11.70;;;;;;5482154;26;20458;-80
2024/04/11 02:58:46;;;;;;;3.43;2.10;;;8.60;11.70;;;;;;5477209;26;20896;-78
2024/04/11 03:01:15;;;;;;;7.73;3.93;;;8.50;10.30;;;;;;5476804;26;20471;-81
2024/04/11 03:03:48;;;;;;;4.37;2.60;;;8.50;13.20;;;;;;5480125;26;20468;-81
2024/04/11 03:06:17;;;;;;;7.67;2.97;;;8.60;14.20;;;;;;5472202;26;21192;-78
2024/04/11 03:08:50;;;;;;;4.03;2.90;;;8.60;13.70;;;;;;5478036;26;20517;-79
2024/04/11 03:11:18;;;;;;;4.00;2.53;;;8.40;13.80;;;;;;5481829;26;20541;-79
2024/04/11 03:13:48;;;;;;;3.07;2.87;;;8.50;15.00;;;;;;5474777;26;20458;-77
2024/04/11 03:16:15;;;;;;;2.40;2.20;;;8.60;15.50;;;;;;5477449;26;20547;-78
2024/04/11 03:18:48;;;;;;;5.20;2.10;;;8.60;15.60;;;;;;5474869;26;20470;-77
2024/04/11 03:21:16;;;;;;;2.77;2.47;;;8.50;15.50;;;;;;5480400;26;20461;-78
2024/04/11 03:23:47;;;;;;;3.50;2.40;;;8.50;15.50;;;;;;5471159;26;20465;-78
2024/04/11 03:26:14;;;;;;;5.10;2.93;;;8.50;16.80;;;;;;5475476;26;20533;-79
2024/04/11 03:28:45;;;;;;;4.50;2.50;;;8.50;16.40;;;;;;5483434;26;20542;-78
2024/04/11 03:31:14;;;;;;;3.43;2.37;;;8.50;16.70;;;;;;5472033;26;20593;-78
2024/04/11 03:33:46;;;;;;;2.57;2.27;;;8.60;16.00;;;;;;5474487;26;21156;-76
2024/04/11 03:36:19;;;;;;;2.73;2.53;;;8.60;16.60;;;;;;5482041;26;20472;-79
2024/04/11 03:38:54;;;;;;;4.40;2.70;;;8.60;16.10;;;;;;5473438;26;20598;-78
2024/04/11 03:41:22;;;;;;;2.77;2.57;;;8.60;16.20;;;;;;5477503;26;21303;-77
2024/04/11 03:43:53;;;;;;;2.90;2.60;;;8.60;16.90;;;;;;5477084;26;20477;-79
2024/04/11 03:46:24;;;;;;;2.60;2.23;;;8.60;16.50;;;;;;5480951;26;20574;-78
2024/04/11 03:48:55;;;;;;;4.50;2.10;;;8.60;16.50;;;;;;5481785;26;20505;-79
2024/04/11 03:51:33;;;;;;;3.43;2.07;;;8.50;16.50;;;;;;5530916;25;20599;-77
2024/04/11 03:54:01;;;;;;;2.97;2.67;;;8.50;16.40;;;;;;5476616;26;20567;-80
2024/04/11 03:56:32;;;;;;;2.23;2.03;;;8.50;16.60;;;;;;5480143;26;21141;-77
2024/04/11 03:58:59;;;;;;;2.43;2.13;;;8.50;16.10;;;;;;5473215;26;20548;-79
2024/04/11 04:01:30;;;;;;;2.70;2.50;;;8.40;16.30;;;;;;5462911;26;20523;-83
2024/04/11 04:04:02;;;;;;;3.83;2.60;;;8.50;16.80;;;;;;5475236;26;20465;-77
2024/04/11 04:06:38;;;;;;;4.20;2.20;;;8.40;16.00;;;;;;5472700;26;20469;-79
2024/04/11 04:09:07;;;;;;;4.43;3.00;;;8.40;17.50;;;;;;5473499;26;20387;-79
2024/04/11 04:11:41;;;;;;;3.33;3.03;;;8.30;16.80;;;;;;5462641;26;20270;-79
2024/04/11 04:14:11;;;;;;;4.77;2.33;;;8.30;18.00;;;;;;5471264;26;20527;-79
2024/04/11 04:16:41;;;;;;;5.53;2.57;;;8.40;17.50;;;;;;5483785;26;20476;-80
2024/04/11 04:19:10;;;;;;;2.90;2.60;;;8.40;17.80;;;;;;5473319;26;20908;-79
2024/04/11 04:21:43;;;;;;;3.67;2.67;;;8.30;16.70;;;;;;5477726;26;20470;-76
2024/04/11 04:24:10;;;;;;;3.70;2.80;;;8.30;16.40;;;;;;5470014;26;20524;-81
2024/04/11 04:26:40;;;;;;;4.67;2.70;;;8.30;16.40;;;;;;5473667;26;20465;-78
2024/04/11 04:29:09;;;;;;;2.90;2.33;;;8.20;17.00;;;;;;5472660;26;20761;-83
2024/04/11 04:31:40;;;;;;;3.00;2.73;;;8.20;19.20;;;;;;5469366;26;20473;-80
2024/04/11 04:34:09;;;;;;;4.80;2.70;;;8.20;19.40;;;;;;5476200;26;20454;-78
2024/04/11 04:36:43;;;;;;;6.23;3.03;;;8.20;19.00;;;;;;5480986;26;20554;-77
2024/04/11 04:39:13;;;;;;;2.67;2.47;;;8.10;19.40;;;;;;5464941;26;20539;-80
2024/04/11 04:41:47;;;;;;;3.40;2.50;;;8.20;20.30;;;;;;5467312;26;20571;-78
2024/04/11 04:44:16;;;;;;;3.10;2.80;;;8.20;20.70;;;;;;5475331;26;20520;-80
2024/04/11 04:46:47;;;;;;;7.40;3.20;;;8.10;20.30;;;;;;5476222;26;20588;-81
2024/04/11 04:49:14;;;;;;;3.60;3.23;;;8.10;20.80;;;;;;5469361;26;20509;-80
2024/04/11 04:51:47;;;;;;;5.40;2.60;;;8.20;21.10;;;;;;5466155;26;20811;-79
2024/04/11 04:54:16;;;;;;;3.33;2.77;;;8.10;20.60;;;;;;5467832;26;20553;-81
2024/04/11 04:56:46;;;;;;;3.10;2.33;;;8.20;21.90;;;;;;5470108;26;20524;-77
2024/04/11 04:59:13;;;;;;;4.13;2.40;;;8.20;20.60;;;;;;5467965;26;20562;-78
2024/04/11 05:01:43;;;;;;;3.10;2.60;;;8.10;21.10;;;;;;5466154;26;20600;-78
2024/04/11 05:04:13;;;;;;;2.60;2.40;;;8.10;22.60;;;;;;5463605;26;20464;-82
2024/04/11 05:06:49;;;;;;;2.70;2.50;;;8.10;22.30;;;;;;5467028;26;20523;-79
2024/04/11 05:09:16;;;;;;;2.93;2.63;;;8.20;23.30;;;;;;5468895;26;20473;-78
2024/04/11 05:11:47;;;;;;;2.50;2.33;;;8.20;23.30;;;;;;5463005;26;20586;-76
2024/04/11 05:14:16;;;;;;;2.80;2.60;;;8.10;23.20;;;;;;5464683;26;21059;-77
2024/04/11 05:16:46;;;;;;;3.47;2.67;;;8.20;23.80;;;;;;5465874;26;21167;-80
2024/04/11 05:19:15;;;;;;;2.53;2.40;;;8.10;24.20;;;;;;5467625;26;21064;-78
2024/04/11 05:21:49;;;;;;;3.87;3.07;;;8.10;24.40;;;;;;5460749;26;20493;-78
2024/04/11 05:24:17;;;;;;;4.70;2.90;;;8.10;25.50;;;;;;5485486;26;20473;-77
2024/04/11 05:26:48;;;;;;;5.83;3.60;;;8.10;26.30;;;;;;5465527;26;20469;-78
2024/04/11 05:29:16;;;;;;;3.27;3.07;;;8.20;27.90;;;;;;5462329;26;20514;-77
2024/04/11 05:31:46;;;;;;;7.73;3.20;;;8.30;27.90;;;;;;5462685;26;20527;-80
2024/04/11 05:34:16;;;;;;;5.90;3.07;;;8.30;27.80;;;;;;5467221;26;20467;-80
2024/04/11 05:36:50;;;;;;;7.07;4.03;;;8.40;28.90;;;;;;5471706;26;21071;-79
2024/04/11 05:39:20;;;;;;;3.90;3.60;;;8.40;29.50;;;;;;5475209;26;20912;-79
2024/04/11 05:41:51;;;;;;;3.43;3.13;;;8.50;30.20;;;;;;5469552;26;20485;-78
2024/04/11 05:44:19;;;;;;;7.47;3.00;;;8.40;28.90;;;;;;5465343;26;20509;-79
2024/04/11 05:46:49;;;;;;;3.57;3.23;;;8.40;29.90;;;;;;5471643;26;20519;-80
2024/04/11 05:49:17;;;;;;;4.47;3.10;;;8.50;29.30;;;;;;5468979;26;20525;-79
2024/04/11 05:51:50;;;;;;;3.70;3.13;;;8.60;44.30;;;;;;5468784;26;20534;-77
2024/04/11 05:54:18;;;;;;;8.20;3.20;;;8.70;30.60;;;;;;5470382;26;21258;-79
2024/04/11 05:56:50;;;;;;;4.80;3.70;;;8.70;43.50;;;;;;5472752;26;20465;-79
2024/04/11 05:59:19;;;;;;;2.80;2.60;;;8.80;29.80;;;;;;5472298;26;20549;-80
2024/04/11 06:01:50;;;;;;;4.67;3.03;;;8.90;31.90;;;;;;5467116;26;20469;-77
2024/04/11 06:04:17;;;;;;;3.53;2.90;;;9.00;32.40;;;;;;5476871;26;20457;-80
2024/04/11 06:06:51;;;;;;;3.63;2.90;;;9.10;29.80;;;;;;5465607;26;20537;-79
2024/04/11 06:09:18;;;;;;;4.90;3.57;;;9.20;30.50;;;;;;5470676;26;20461;-78
2024/04/11 06:11:48;;;;;;;6.70;3.13;;;9.40;30.90;;;;;;5466772;26;20473;-77
2024/04/11 06:14:16;;;;;;;7.07;3.43;;;9.50;29.30;;;;;;5471402;26;20537;-75
2024/04/11 06:16:46;;;;;;;6.10;3.23;;;9.60;29.40;;;;;;5463025;26;20521;-77
2024/04/11 06:19:13;;;;;;;5.77;3.80;;;9.70;27.70;;;;;;5468255;26;20522;-79
2024/04/11 06:21:47;;;;;;;5.17;3.50;;;9.90;29.20;;;;;;5465431;26;20537;-78
2024/04/11 06:24:18;;;;;;;3.30;2.90;;;10.00;28.60;;;;;;5467402;26;20465;-80
2024/04/11 06:26:48;;;;;;;3.97;3.13;;;10.20;32.80;;;;;;5466937;26;20449;-76
2024/04/11 06:29:19;;;;;;;4.20;3.50;;;10.30;27.10;;;;;;5467244;26;20509;-76
2024/04/11 06:31:49;;;;;;;4.17;3.57;;;10.40;27.20;;;;;;5471910;26;20594;-79
2024/04/11 06:34:17;;;;;;;5.30;3.83;;;10.60;26.50;;;;;;5474631;26;20476;-77
2024/04/11 06:36:49;;;;;;;4.47;3.43;;;10.70;27.50;;;;;;5472477;26;20525;-73
2024/04/11 06:39:19;;;;;;;6.20;3.37;;;10.90;28.40;;;;;;5470509;26;20861;-72
2024/04/11 06:41:49;;;;;;;6.00;4.33;;;11.10;29.80;;;;;;5468704;26;20539;-75
2024/04/11 06:44:17;;;;;;;4.90;3.63;;;11.30;32.50;;;;;;5483166;26;20521;-73
2024/04/11 06:46:49;;;;;;;4.37;3.50;;;11.50;32.60;;;;;;5467844;26;20858;-75
2024/04/11 06:49:16;;;;;;;4.90;3.27;;;11.80;33.50;;;;;;5469891;26;20519;-74
2024/04/11 06:51:47;;;;;;;8.70;4.23;;;11.90;33.10;;;;;;5470499;26;20477;-76
2024/04/11 06:54:18;;;;;;;5.17;3.80;;;11.90;32.30;;;;;;5473803;26;20449;-73
2024/04/11 06:56:49;;;;;;;6.73;3.30;;;12.10;35.30;;;;;;5467470;26;20533;-76
2024/04/11 06:59:20;;;;;;;4.73;3.93;;;12.20;34.10;;;;;;5478557;26;20477;-77
2024/04/11 07:01:48;;;;;;;5.70;3.87;;;12.20;31.80;;;;;;5471963;26;21016;-75
2024/04/11 07:04:18;;;;;;;4.00;3.60;;;12.20;31.70;;;;;;5475118;26;20605;-77
2024/04/11 07:06:46;;;;;;;5.47;3.20;;;12.20;31.80;;;;;;5470561;26;20618;-75
2024/04/11 07:09:16;;;;;;;12.07;3.93;;;12.40;30.40;;;;;;5474200;26;20483;-76
2024/04/11 07:11:48;;;;;;;8.80;4.47;;;12.50;33.20;;;;;;5469160;26;20527;-75
2024/04/11 07:14:23;;;;;;;8.67;3.50;;;12.60;33.20;;;;;;5481280;26;20922;-76
2024/04/11 07:16:56;;;;;;;7.47;4.07;;;12.70;32.20;;;;;;5474021;26;20475;-78
2024/04/11 07:19:27;;;;;;;5.40;3.33;;;12.70;29.70;;;;;;5470847;26;20572;-75
2024/04/11 07:21:54;;;;;;;9.33;3.80;;;12.70;28.10;;;;;;5470926;26;20476;-75
2024/04/11 07:24:25;;;;;;;7.30;3.30;;;12.90;30.20;;;;;;5474639;26;20460;-76
2024/04/11 07:26:53;;;;;;;4.77;3.10;;;13.10;30.30;;;;;;5466792;26;20476;-77
2024/04/11 07:29:26;;;;;;;9.87;4.20;;;13.20;31.10;;;;;;5469199;26;20524;-74
2024/04/11 07:31:53;;;;;;;4.30;3.90;;;13.40;34.10;;;;;;5468006;26;21202;-79
2024/04/11 07:34:23;;;;;;;9.13;3.33;;;13.50;49.40;;;;;;5478963;26;20511;-79
2024/04/11 07:36:51;;;;;;;10.70;3.17;;;13.60;33.60;;;;;;5464527;26;20549;-79
2024/04/11 07:39:21;;;;;;;7.00;2.93;;;13.70;34.00;;;;;;5471140;26;20462;-79
2024/04/11 07:42:00;;;;;;;5.80;4.03;;;13.70;33.00;;;;;;5461826;26;20542;-77
2024/04/11 07:44:35;;;;;;;5.60;3.00;;;13.70;34.20;;;;;;5470549;26;21051;-79
2024/04/11 07:47:05;;;;;;;7.47;3.57;;;13.90;35.30;;;;;;5469628;26;20827;-77
2024/04/11 07:49:48;;;;;;;4.83;3.40;;;14.00;36.30;;;;;;5472474;26;20460;-80
2024/04/11 07:52:16;;;;;;;5.23;3.10;;;14.10;36.20;;;;;;5469056;26;20470;-79
2024/04/11 07:54:53;;;;;;;7.90;3.57;;;14.20;37.00;;;;;;5469701;26;20471;-76
2024/04/11 07:57:21;;;;;;;3.40;3.07;;;14.20;35.80;;;;;;5471407;26;20893;-79
2024/04/11 07:59:55;;;;;;;3.13;2.93;;;14.20;34.20;;;;;;5465413;26;20528;-78
2024/04/11 08:02:23;;;;;;;7.37;3.33;;;14.10;31.90;;;;;;5465093;26;20527;-79
2024/04/11 08:04:53;;;;;;;6.57;2.70;;;14.20;47.80;;;;;;5469999;26;20586;-78
2024/04/11 08:07:20;;;;;;;3.37;3.00;;;14.40;34.50;;;;;;5470728;26;20551;-80
2024/04/11 08:09:55;;;;;;;3.20;2.37;;;14.50;34.70;;;;;;5469234;26;20568;-79
2024/04/11 08:12:23;;;;;;;4.73;2.73;;;14.60;33.40;;;;;;5471012;26;21133;-78
2024/04/11 08:14:56;;;;;;;2.53;1.80;;;14.40;29.10;;;;;;5467806;26;20463;-78
2024/04/11 08:17:25;;;;;;;4.00;2.60;;;14.60;39.80;;;;;;5468321;26;20454;-77
2024/04/11 08:19:56;;;;;;;3.83;2.17;;;14.60;29.50;;;;;;5472895;26;20476;-76
2024/04/11 08:22:25;;;;;;;4.67;2.33;;;14.60;31.80;;;;;;5466720;26;20484;-77
2024/04/11 08:24:58;;;;;;;2.60;2.30;;;14.70;29.80;;;;;;5475585;26;20530;-75
2024/04/11 08:27:25;;;;;;;2.40;2.20;;;14.70;29.40;;;;;;5463457;26;20519;-80
2024/04/11 08:29:58;;;;;;;7.10;2.20;;;14.80;30.60;;;;;;5463847;26;20927;-79
2024/04/11 08:32:26;;;;;;;4.03;2.10;;;14.90;45.10;;;;;;5468768;26;20467;-77
2024/04/11 08:34:56;;;;;;;2.63;2.17;;;15.00;30.00;;;;;;5471742;26;20827;-80
2024/04/11 08:37:23;;;;;;;2.50;2.30;;;14.90;28.50;;;;;;5469243;26;20507;-78
2024/04/11 08:39:54;;;;;;;5.30;2.10;;;15.00;31.10;;;;;;5463115;26;20512;-75
2024/04/11 08:42:22;;;;;;;6.23;2.60;;;15.20;33.20;;;;;;5464504;26;20828;-76
2024/04/11 08:44:57;;;;;;;5.73;3.40;;;15.10;31.90;;;;;;5470457;26;20471;-80
2024/04/11 08:47:27;;;;;;;2.77;2.57;;;15.20;32.90;;;;;;5468247;26;20475;-80
2024/04/11 08:49:58;;;;;;;3.93;2.60;;;15.30;33.20;;;;;;5470470;26;20535;-80
2024/04/11 08:52:30;;;;;;;5.00;3.03;;;15.20;31.00;;;;;;5469168;26;20538;-78
2024/04/11 08:55:00;;;;;;;2.80;2.60;;;15.30;33.10;;;;;;5465127;26;20453;-79
2024/04/11 08:57:28;;;;;;;5.63;3.83;;;15.20;45.20;;;;;;5470190;26;21055;-78
2024/04/11 09:00:00;;;;;;;4.20;2.73;;;15.10;30.20;;;;;;5462554;26;20473;-77
2024/04/11 09:02:30;;;;;;;8.20;2.70;;;15.10;31.00;;;;;;5469789;26;20526;-76
2024/04/11 09:05:00;;;;;;;4.00;2.10;;;15.20;31.00;;;;;;5471229;26;21174;-78
2024/04/11 09:07:44;;;;;;;4.50;2.23;;;15.30;33.40;;;;;;5466489;26;20953;-78
2024/04/11 09:10:15;;;;;;;6.53;2.57;;;15.20;30.10;;;;;;5474202;26;20483;-78
2024/04/11 09:12:42;;;;;;;2.63;2.17;;;15.30;35.40;;;;;;5469197;26;20725;-77
2024/04/11 09:15:15;;;;;;;2.93;2.00;;;15.50;36.40;;;;;;5466472;26;20528;-79
2024/04/11 09:17:45;;;;;;;2.40;2.20;;;15.60;36.90;;;;;;5468498;26;20523;-77
2024/04/11 09:20:19;;;;;;;2.90;1.90;;;15.70;38.70;;;;;;5467935;26;20460;-79
2024/04/11 09:22:50;;;;;;;2.40;1.70;;;15.80;37.80;;;;;;5465568;26;20526;-80
2024/04/11 09:25:26;;;;;;;4.53;1.80;;;15.80;39.10;;;;;;5472535;26;20463;-77
2024/04/11 09:27:58;;;;;;;3.97;1.83;;;15.80;37.00;;;;;;5470845;26;20486;-77
2024/04/11 09:30:34;;;;;;;3.00;2.37;;;15.80;34.70;;;;;;5471060;26;20463;-78
2024/04/11 09:33:10;;;;;;;3.90;2.13;;;15.70;32.50;;;;;;5473268;26;20475;-77
2024/04/11 09:35:46;;;;;;;2.50;2.30;;;15.70;32.50;;;;;;5472863;26;20580;-78
2024/04/11 09:38:19;;;;;;;5.87;2.57;;;15.60;30.20;;;;;;5484647;26;21074;-77
2024/04/11 09:40:50;;;;;;;2.10;1.90;;;15.60;30.90;;;;;;5477733;26;20540;-80
2024/04/11 09:43:19;;;;;;;3.87;1.90;;;15.70;31.00;;;;;;5481388;26;20456;-78
2024/04/11 09:45:56;;;;;;;3.73;2.57;;;15.70;30.40;;;;;;5468265;26;20509;-77
2024/04/11 09:48:31;;;;;;;4.50;1.80;;;15.70;31.30;;;;;;5477182;26;20578;-79
2024/04/11 09:51:05;;;;;;;4.50;1.90;;;15.80;32.50;;;;;;5470358;26;20463;-78
2024/04/11 09:53:36;;;;;;;3.27;1.80;;;15.80;32.50;;;;;;5472608;26;20510;-79
2024/04/11 09:56:08;;;;;;;2.67;1.83;;;15.90;33.20;;;;;;5474819;26;20467;-78
2024/04/11 09:58:38;;;;;;;2.80;2.00;;;16.00;37.90;;;;;;5475607;26;20508;-80
2024/04/11 10:01:29;;;;;;;4.03;2.53;;;16.10;36.90;;;;;;5467797;26;20546;-74
2024/04/11 10:04:04;;;;;;;3.80;1.90;;;16.10;52.50;;;;;;5471233;26;20936;-75
2024/04/11 10:06:38;;;;;;;3.60;1.90;;;16.30;41.00;;;;;;5467756;26;20469;-77
2024/04/11 10:09:11;;;;;;;4.03;1.63;;;16.30;38.60;;;;;;5465510;26;21274;-72
2024/04/11 10:11:46;;;;;;;1.90;1.80;;;16.30;37.70;;;;;;5470673;26;20468;-74
2024/04/11 10:14:17;;;;;;;2.97;1.93;;;16.40;40.50;;;;;;5466463;26;21448;-74
2024/04/11 10:16:55;;;;;;;2.60;1.67;;;16.40;41.40;;;;;;5470924;26;20533;-74
2024/04/11 10:19:27;;;;;;;3.40;1.80;;;16.50;43.00;;;;;;5468338;26;20459;-75
2024/04/11 10:22:04;;;;;;;3.33;1.80;;;16.60;44.60;;;;;;5466418;26;20464;-76
2024/04/11 10:24:34;;;;;;;2.33;2.13;;;16.60;46.00;;;;;;5470444;26;20452;-75
2024/04/11 10:27:17;;;;;;;2.50;2.07;;;16.70;48.40;;;;;;5468844;26;21089;-74
2024/04/11 10:29:46;;;;;;;3.83;3.10;;;16.80;46.30;;;;;;5462176;26;20464;-76
2024/04/11 10:32:21;;;;;;;3.50;2.17;;;16.80;60.70;;;;;;5467755;26;20482;-77
2024/04/11 10:34:56;;;;;;;1.70;1.60;;;16.80;43.80;;;;;;5469093;26;20466;-74
2024/04/11 10:37:29;;;;;;;3.37;2.57;;;16.90;44.50;;;;;;5472649;26;20823;-76
2024/04/11 10:39:58;;;;;;;2.57;1.90;;;16.90;44.40;;;;;;5467652;26;20487;-75
2024/04/11 10:42:39;;;;;;;2.93;2.43;;;16.90;45.40;;;;;;5469391;26;20468;-73
2024/04/11 10:45:11;;;;;;;3.13;2.00;;;17.00;45.00;;;;;;5465740;26;20513;-76
2024/04/11 10:47:42;;;;;;;3.13;2.00;;;17.10;45.00;;;;;;5463013;26;20453;-78
2024/04/11 10:50:14;;;;;;;8.83;1.90;;;17.00;41.60;;;;;;5471170;26;20553;-76
2024/04/11 10:52:47;;;;;;;1.80;1.70;;;17.00;41.70;;;;;;5464906;26;20559;-75
2024/04/11 10:55:22;;;;;;;2.60;2.27;;;17.00;42.20;;;;;;5466031;26;20461;-74
2024/04/11 10:58:08;;;;;;;3.13;1.93;;;17.10;41.80;;;;;;5468722;26;20522;-76
2024/04/11 11:03:40;;;;;;;2.03;1.83;;;17.10;39.50;;;;;;5468792;26;21158;-75
2024/04/11 11:06:19;;;;;;;3.40;2.37;;;17.10;41.10;;;;;;5470477;26;20590;-74
2024/04/11 11:08:49;;;;;;;2.90;2.03;;;17.20;43.60;;;;;;5471451;26;20552;-77
2024/04/11 11:11:21;;;;;;;3.33;2.00;;;17.20;44.90;;;;;;5472954;26;20514;-75
2024/04/11 11:13:54;;;;;;;3.13;2.27;;;17.30;42.40;;;;;;5466896;26;20480;-77
2024/04/11 11:16:26;;;;;;;5.23;2.90;;;17.40;46.80;;;;;;5463297;26;20536;-77
2024/04/11 11:18:58;;;;;;;5.20;2.90;;;17.40;48.20;;;;;;5467142;26;21208;-75
2024/04/11 11:21:32;;;;;;;2.43;2.23;;;17.50;48.60;;;;;;5466338;26;20467;-72
2024/04/11 11:24:06;;;;;;;3.43;2.63;;;17.50;50.20;;;;;;5466265;26;20488;-74
2024/04/11 11:26:35;;;;;;;3.20;2.53;;;17.50;50.40;;;;;;5467777;26;21154;-75
2024/04/11 11:29:09;;;;;;;3.90;2.50;;;17.60;47.00;;;;;;5468650;26;20577;-75
2024/04/11 11:31:36;;;;;;;3.43;2.20;;;17.60;48.20;;;;;;5466057;26;20801;-77
2024/04/11 11:34:09;;;;;;;6.60;2.23;;;17.60;41.80;;;;;;5469640;26;20525;-78
2024/04/11 11:36:44;;;;;;;3.50;2.87;;;17.60;41.20;;;;;;5474132;26;20536;-77
2024/04/11 11:39:25;;;;;;;4.03;2.40;;;17.60;38.90;;;;;;5467544;26;20543;-78
2024/04/11 11:42:00;;;;;;;3.03;2.00;;;17.60;40.30;;;;;;5468559;26;20536;-77
2024/04/11 11:44:41;;;;;;;3.00;2.70;;;17.60;43.30;;;;;;5470127;26;20516;-77
2024/04/11 11:47:08;;;;;;;4.53;3.00;;;17.70;45.50;;;;;;5467472;26;20876;-78
2024/04/11 11:49:39;;;;;;;5.70;3.30;;;17.70;44.30;;;;;;5469021;26;20472;-77
2024/04/11 11:52:13;;;;;;;3.63;2.80;;;17.70;40.30;;;;;;5470435;26;20477;-76
2024/04/11 11:54:44;;;;;;;4.53;2.80;;;17.70;42.90;;;;;;5468060;26;20473;-76
2024/04/11 11:57:17;;;;;;;4.87;1.90;;;17.70;43.00;;;;;;5470505;26;20903;-78
2024/04/11 11:59:47;;;;;;;2.60;2.40;;;17.70;39.90;;;;;;5462028;26;20546;-75
2024/04/11 12:02:15;;;;;;;2.47;2.27;;;17.70;42.00;;;;;;5469887;26;20473;-77
2024/04/11 12:04:52;;;;;;;2.53;2.40;;;17.80;42.80;;;;;;5469097;26;20594;-77
2024/04/11 12:07:24;;;;;;;2.43;2.23;;;17.80;56.40;;;;;;5523580;25;20581;-78
2024/04/11 12:10:12;;;;;;;2.73;2.20;;;17.80;44.70;;;;;;5470058;26;20506;-76
2024/04/11 12:12:43;;;;;;;4.73;2.00;;;18.00;45.30;;;;;;5464080;26;20466;-78
2024/04/11 12:15:23;;;;;;;2.40;1.90;;;18.00;44.50;;;;;;5461512;26;20506;-77
2024/04/11 12:17:50;;;;;;;2.60;2.00;;;18.00;43.30;;;;;;5467052;26;20557;-75
2024/04/11 12:20:21;;;;;;;2.50;2.30;;;18.00;41.80;;;;;;5463824;26;21198;-77
2024/04/11 12:22:52;;;;;;;3.53;1.93;;;18.10;42.90;;;;;;5466715;26;20523;-76
2024/04/11 12:25:23;;;;;;;1.73;1.63;;;18.10;41.90;;;;;;5462880;26;20465;-75
2024/04/11 12:27:50;;;;;;;1.90;1.67;;;18.10;42.70;;;;;;5465560;26;20530;-76
2024/04/11 12:30:22;;;;;;;2.60;2.40;;;18.20;43.50;;;;;;5467182;26;20895;-76
2024/04/11 12:32:51;;;;;;;2.43;1.93;;;18.20;43.30;;;;;;5475192;26;20579;-76
2024/04/11 12:35:21;;;;;;;3.23;2.00;;;18.20;44.00;;;;;;5456973;26;20537;-76
2024/04/11 12:37:54;;;;;;;4.60;2.60;;;18.30;42.90;;;;;;5463764;26;21111;-77
2024/04/11 12:40:33;;;;;;;3.00;1.93;;;18.30;45.00;;;;;;5473554;26;20861;-76
2024/04/11 12:43:01;;;;;;;4.43;2.00;;;18.30;44.20;;;;;;5469595;26;20482;-77
2024/04/11 12:45:34;;;;;;;3.93;2.37;;;18.30;42.80;;;;;;5462308;26;20481;-78
2024/04/11 12:48:05;;;;;;;4.13;1.90;;;18.40;44.30;;;;;;5463757;26;20458;-75
2024/04/11 12:50:36;;;;;;;7.03;2.20;;;18.40;44.30;;;;;;5467828;26;20461;-77
2024/04/11 12:53:10;;;;;;;2.20;1.70;;;18.40;41.70;;;;;;5468371;26;20465;-77
2024/04/11 12:55:42;;;;;;;4.63;1.93;;;18.40;43.60;;;;;;5471258;26;20526;-78
2024/04/11 12:58:10;;;;;;;3.70;2.10;;;18.40;43.80;;;;;;5463292;26;20892;-79
2024/04/11 13:00:57;;;;;;;3.67;1.80;;;18.50;43.50;;;;;;5466981;26;20585;-75
2024/04/11 13:03:34;;;;;;;2.57;2.03;;;18.40;42.00;;;;;;5466698;26;20991;-78
2024/04/11 13:06:08;;;;;;;3.30;2.20;;;18.40;42.40;;;;;;5470959;26;20572;-75
2024/04/11 13:08:40;;;;;;;3.43;2.37;;;18.50;42.70;;;;;;5467723;26;20518;-78
2024/04/11 13:11:10;;;;;;;2.30;1.80;;;18.50;43.50;;;;;;5468535;26;20591;-76
2024/04/11 13:13:39;;;;;;;4.40;2.20;;;18.50;39.90;;;;;;5470436;26;20517;-74
2024/04/11 13:16:12;;;;;;;6.30;1.90;;;18.50;41.00;;;;;;5466354;26;20458;-77